»·PEaware :: AMX646 MMMX-KLAX

AMX646 :: MMMX-KLAX

FLIGHT INFORMATION

Flight Status: Arrived
Operator:
Aeromexico
More flights by this operator :: More flights under this callsign
Pilot: Matthew M. (8235)
Aircraft: Unknown
(B789)
More flights by this aircraft type
Origin: MMMX Lic Benito Juarez Intl
Mexico
Destination: KLAX Los Angeles Intl
United States
More flights between these airports :: More routes between these airports
Route: PTJ5A PTJ J13 AGU UJ63 DGO UJ5 HMO UJ3 PPE J93 AXASA ASUTA AMMOR SNSTT2
File this flight plan on PilotEdge
Remarks:
Altitude:
(Current/Filed)
43,000ft
Speed:
(Current/Filed)
477kts
Departed: 01-Jun-20 09:02 AM
Arrived: 01-Jun-20 12:20 PM
Distance/Time
Traveled:
1349nm/3:18
Distance/Time
To Go:
Arrived

Flight Plot

Page will automatically refresh every two minutes.


Map Options




Map Legend


Flown Route
Filed Route
Departure Airport
Arrival Airport
Navaid (VOR, NDB)
Fix

Horizontal Profiles

Position Reports

Time Latitude Longitude Heading Altitude Ground
Speed
01-Jun-20 08:54 19.435538 -99.080476 330 7329ft 0kts
01-Jun-20 08:55 19.435377 -99.080380 330 7329ft 2kts
01-Jun-20 08:56 19.435123 -99.079725 254 7329ft 0kts
01-Jun-20 08:57 19.435122 -99.079729 254 7329ft 0kts
01-Jun-20 08:58 19.433635 -99.081990 238 7329ft 19kts
01-Jun-20 08:59 19.430008 -99.088462 239 7329ft 24kts
01-Jun-20 09:00 19.428134 -99.089315 59 7329ft 0kts
01-Jun-20 09:01 19.431923 -99.082580 59 7329ft 100kts
01-Jun-20 09:02 19.455769 -99.040364 58 7913ft 193kts
01-Jun-20 09:03 19.487535 -98.990183 56 9426ft 230kts
01-Jun-20 09:04 19.472668 -98.926850 155 10880ft 302kts
01-Jun-20 09:05 19.380989 -98.904027 166 12449ft 369kts
01-Jun-20 09:06 19.303449 -98.956486 255 16197ft 363kts
01-Jun-20 09:07 19.325650 -99.066678 279 17905ft 406kts
01-Jun-20 09:08 19.351326 -99.183587 291 20551ft 419kts
01-Jun-20 09:09 19.399882 -99.297376 295 22994ft 431kts
01-Jun-20 09:10 19.455776 -99.411959 296 25168ft 443kts
01-Jun-20 09:11 19.513491 -99.528986 295 27151ft 454kts
01-Jun-20 09:12 19.572575 -99.648978 295 28959ft 464kts
01-Jun-20 09:13 19.633938 -99.770491 300 30639ft 474kts
01-Jun-20 09:14 19.716140 -99.883644 307 32103ft 486kts
01-Jun-20 09:15 19.803468 -99.991634 307 34040ft 481kts
01-Jun-20 09:16 19.890478 -100.099107 307 35839ft 477kts
01-Jun-20 09:17 19.976896 -100.206047 307 37310ft 475kts
01-Jun-20 09:18 20.062600 -100.312147 306 38611ft 472kts
01-Jun-20 09:19 20.147981 -100.418076 306 39705ft 469kts
01-Jun-20 09:20 20.232389 -100.522968 306 40593ft 466kts
01-Jun-20 09:21 20.316494 -100.627685 306 41358ft 462kts
01-Jun-20 09:22 20.399741 -100.731522 306 42039ft 458kts
01-Jun-20 09:23 20.482690 -100.835191 306 42424ft 459kts
01-Jun-20 09:24 20.565564 -100.938938 306 42796ft 459kts
01-Jun-20 09:25 20.648381 -101.042644 306 43115ft 459kts
01-Jun-20 09:26 20.730429 -101.145606 306 43364ft 453kts
01-Jun-20 09:27 20.812023 -101.248295 306 43397ft 453kts
01-Jun-20 09:28 20.893742 -101.351321 306 43390ft 454kts
01-Jun-20 09:29 20.975144 -101.454127 306 43405ft 454kts
01-Jun-20 09:30 21.059654 -101.554745 309 43399ft 455kts
01-Jun-20 09:31 21.145355 -101.654755 308 43390ft 454kts
01-Jun-20 09:32 21.230787 -101.754596 308 43402ft 453kts
01-Jun-20 09:33 21.315894 -101.854174 308 43386ft 453kts
01-Jun-20 09:34 21.401081 -101.953965 308 43380ft 452kts
01-Jun-20 09:35 21.485725 -102.053269 308 43389ft 451kts
01-Jun-20 09:36 21.570181 -102.152515 308 43373ft 450kts
01-Jun-20 09:37 21.654752 -102.252107 308 43387ft 449kts
01-Jun-20 09:38 21.743757 -102.345902 315 43388ft 452kts
01-Jun-20 09:39 21.840400 -102.432953 316 43370ft 452kts
01-Jun-20 09:40 21.937621 -102.519182 316 43378ft 452kts
01-Jun-20 09:41 22.034426 -102.605363 316 43377ft 452kts
01-Jun-20 09:43 22.131612 -102.691994 316 43369ft 451kts
01-Jun-20 09:44 22.227951 -102.777994 316 43382ft 450kts
01-Jun-20 09:45 22.324523 -102.864330 316 43369ft 450kts
01-Jun-20 09:46 22.420984 -102.950744 316 43371ft 449kts
01-Jun-20 09:47 22.516951 -103.036854 316 43383ft 449kts
01-Jun-20 09:48 22.613182 -103.123341 316 43374ft 448kts
01-Jun-20 09:49 22.708955 -103.209613 316 43359ft 448kts
01-Jun-20 09:50 22.804947 -103.296197 316 43358ft 448kts
01-Jun-20 09:51 22.900625 -103.382719 315 43364ft 448kts
01-Jun-20 09:52 22.996259 -103.469358 315 43351ft 447kts
01-Jun-20 09:53 23.091925 -103.556148 315 43334ft 447kts
01-Jun-20 09:54 23.187430 -103.642870 315 43332ft 447kts
01-Jun-20 09:55 23.282524 -103.729527 315 43341ft 446kts
01-Jun-20 09:56 23.377809 -103.816529 315 43337ft 446kts
01-Jun-20 09:57 23.472805 -103.903325 315 43331ft 446kts
01-Jun-20 09:58 23.567825 -103.990396 315 43336ft 445kts
01-Jun-20 09:59 23.662719 -104.077501 315 43342ft 445kts
01-Jun-20 10:00 23.757431 -104.164561 315 43351ft 444kts
01-Jun-20 10:00 23.835923 -104.236881 315 43344ft 444kts
01-Jun-20 10:02 23.946132 -104.338631 315 43354ft 444kts
01-Jun-20 10:02 24.024039 -104.410678 315 43372ft 443kts
01-Jun-20 10:04 24.133394 -104.514178 308 43355ft 440kts
01-Jun-20 10:04 24.197131 -104.600470 303 43362ft 437kts
01-Jun-20 10:05 24.271192 -104.706036 304 43365ft 437kts
01-Jun-20 10:06 24.345154 -104.811510 303 43348ft 437kts
01-Jun-20 10:07 24.419246 -104.917625 304 43326ft 437kts
01-Jun-20 10:08 24.492988 -105.023308 304 43309ft 437kts
01-Jun-20 10:09 24.566860 -105.129449 304 43284ft 437kts
01-Jun-20 10:10 24.640725 -105.235913 304 43262ft 437kts
01-Jun-20 10:11 24.714239 -105.342230 303 43239ft 437kts
01-Jun-20 10:12 24.787779 -105.448728 304 43221ft 437kts
01-Jun-20 10:13 24.861521 -105.555752 304 43222ft 436kts
01-Jun-20 10:14 24.934622 -105.662131 303 43209ft 436kts
01-Jun-20 10:15 25.007886 -105.768962 304 43184ft 436kts
01-Jun-20 10:16 25.080956 -105.875745 303 43160ft 436kts
01-Jun-20 10:17 25.154024 -105.982677 304 43134ft 436kts
01-Jun-20 10:18 25.226833 -106.089486 303 43129ft 435kts
01-Jun-20 10:19 25.298054 -106.194196 303 43124ft 434kts
01-Jun-20 10:20 25.371729 -106.302737 303 43075ft 435kts
01-Jun-20 10:21 25.444269 -106.409849 303 43074ft 434kts
01-Jun-20 10:22 25.516934 -106.517449 303 43012ft 435kts
01-Jun-20 10:23 25.589105 -106.624550 303 43020ft 434kts
01-Jun-20 10:24 25.661358 -106.731998 303 43005ft 434kts
01-Jun-20 10:25 25.733317 -106.839270 303 43026ft 433kts
01-Jun-20 10:26 25.805170 -106.946641 303 43004ft 433kts
01-Jun-20 10:27 25.877046 -107.054291 303 43024ft 433kts
01-Jun-20 10:28 25.948780 -107.161994 303 43013ft 433kts
01-Jun-20 10:29 26.020319 -107.269643 303 43021ft 433kts
01-Jun-20 10:30 26.091712 -107.377300 303 43020ft 433kts
01-Jun-20 10:31 26.163241 -107.485434 303 43010ft 433kts
01-Jun-20 10:32 26.234374 -107.593185 303 43022ft 433kts
01-Jun-20 10:33 26.305953 -107.701847 303 43001ft 434kts
01-Jun-20 10:34 26.377144 -107.810218 303 43016ft 433kts
01-Jun-20 10:35 26.448380 -107.918923 303 43006ft 434kts
01-Jun-20 10:36 26.519116 -108.027128 302 43005ft 434kts
01-Jun-20 10:37 26.590408 -108.136517 302 43008ft 433kts
01-Jun-20 10:38 26.661358 -108.245560 302 42998ft 434kts
01-Jun-20 10:39 26.737672 -108.350530 309 43014ft 437kts
01-Jun-20 10:40 26.822817 -108.447975 311 43002ft 439kts
01-Jun-20 10:41 26.909339 -108.544503 311 42992ft 439kts
01-Jun-20 10:42 26.996182 -108.641269 311 43002ft 440kts
01-Jun-20 10:43 27.083149 -108.738360 311 42978ft 441kts
01-Jun-20 10:44 27.169628 -108.835142 311 42994ft 441kts
01-Jun-20 10:45 27.255659 -108.931658 311 42973ft 442kts
01-Jun-20 10:46 27.343738 -109.030688 310 42976ft 442kts
01-Jun-20 10:47 27.427818 -109.125451 310 42955ft 443kts
01-Jun-20 10:48 27.515050 -109.223993 310 42972ft 443kts
01-Jun-20 10:49 27.602249 -109.322733 310 42943ft 444kts
01-Jun-20 10:50 27.688874 -109.421060 310 42968ft 444kts
01-Jun-20 10:51 27.774074 -109.517992 310 42943ft 445kts
01-Jun-20 10:52 27.861245 -109.617393 310 42959ft 445kts
01-Jun-20 10:53 27.948230 -109.716832 310 42944ft 446kts
01-Jun-20 10:54 28.035618 -109.816979 310 42973ft 446kts
01-Jun-20 10:55 28.122579 -109.916879 310 42945ft 447kts
01-Jun-20 10:56 28.209638 -110.017151 309 42963ft 446kts
01-Jun-20 10:57 28.296926 -110.117981 309 42944ft 447kts
01-Jun-20 10:58 28.383909 -110.218695 309 42959ft 447kts
01-Jun-20 10:59 28.471065 -110.319849 309 42955ft 448kts
01-Jun-20 11:00 28.558254 -110.421314 309 42953ft 449kts
01-Jun-20 11:01 28.645640 -110.523258 309 42976ft 449kts
01-Jun-20 11:02 28.733162 -110.625619 309 42972ft 451kts
01-Jun-20 11:03 28.820591 -110.728072 309 42975ft 452kts
01-Jun-20 11:04 28.908137 -110.830900 309 42992ft 453kts
01-Jun-20 11:05 28.995609 -110.933915 309 42980ft 454kts
01-Jun-20 11:06 29.084600 -111.037354 312 42998ft 457kts
01-Jun-20 11:07 29.180554 -111.133368 315 42990ft 459kts
01-Jun-20 11:08 29.278651 -111.228092 315 42987ft 461kts
01-Jun-20 11:09 29.376672 -111.322768 315 43002ft 461kts
01-Jun-20 11:10 29.475010 -111.417966 315 42989ft 463kts
01-Jun-20 11:11 29.573236 -111.513312 315 42994ft 464kts
01-Jun-20 11:12 29.671978 -111.609411 315 43006ft 464kts
01-Jun-20 11:13 29.770476 -111.705519 315 42993ft 466kts
01-Jun-20 11:14 29.869387 -111.802272 315 43009ft 466kts
01-Jun-20 11:15 29.961068 -111.892228 314 43008ft 467kts
01-Jun-20 11:16 30.067331 -111.996757 314 43003ft 468kts
01-Jun-20 11:17 30.165290 -112.093461 314 43030ft 467kts
01-Jun-20 11:18 30.264747 -112.191859 313 43000ft 468kts
01-Jun-20 11:19 30.363768 -112.290022 314 42991ft 469kts
01-Jun-20 11:20 30.463034 -112.388786 314 42974ft 470kts
01-Jun-20 11:21 30.561981 -112.487500 314 42967ft 471kts
01-Jun-20 11:22 30.661430 -112.586979 314 42963ft 471kts
01-Jun-20 11:23 30.760710 -112.686569 314 42942ft 473kts
01-Jun-20 11:24 30.860323 -112.786778 314 42948ft 473kts
01-Jun-20 11:25 30.960080 -112.887425 314 42922ft 474kts
01-Jun-20 11:26 31.059706 -112.988221 314 42919ft 475kts
01-Jun-20 11:27 31.159779 -113.089764 314 42924ft 476kts
01-Jun-20 11:28 31.259395 -113.191129 314 42905ft 477kts
01-Jun-20 11:29 31.358944 -113.293927 307 42881ft 474kts
01-Jun-20 11:30 31.433298 -113.418484 298 42918ft 467kts
01-Jun-20 11:31 31.504497 -113.546407 298 42900ft 468kts
01-Jun-20 11:32 31.575918 -113.674118 298 42915ft 469kts
01-Jun-20 11:33 31.647528 -113.802576 298 42915ft 470kts
01-Jun-20 11:34 31.719003 -113.931266 298 42906ft 471kts
01-Jun-20 11:35 31.790514 -114.060400 298 42925ft 471kts
01-Jun-20 11:36 31.861817 -114.189629 298 42905ft 472kts
01-Jun-20 11:37 31.933260 -114.319548 298 42929ft 472kts
01-Jun-20 11:38 32.004467 -114.449526 298 42919ft 473kts
01-Jun-20 11:39 32.075743 -114.580060 297 42914ft 473kts
01-Jun-20 11:40 32.146833 -114.710653 297 42925ft 474kts
01-Jun-20 11:41 32.217683 -114.841251 297 42935ft 474kts
01-Jun-20 11:42 32.288959 -114.973097 297 42916ft 475kts
01-Jun-20 11:43 32.359956 -115.104878 297 42936ft 474kts
01-Jun-20 11:44 32.430726 -115.236731 297 42919ft 475kts
01-Jun-20 11:45 32.501204 -115.368472 297 42454ft 475kts
01-Jun-20 11:46 32.571672 -115.500641 296 40453ft 468kts
01-Jun-20 11:47 32.641033 -115.631254 296 38556ft 466kts
01-Jun-20 11:48 32.710275 -115.762290 297 36671ft 471kts
01-Jun-20 11:49 32.780176 -115.895039 297 34774ft 478kts
01-Jun-20 11:50 32.849733 -116.031455 295 32920ft 485kts
01-Jun-20 11:51 32.919100 -116.170044 295 31021ft 490kts
01-Jun-20 11:52 32.987915 -116.308087 295 29122ft 480kts
01-Jun-20 11:53 33.060010 -116.439344 302 27158ft 456kts
01-Jun-20 11:54 33.137389 -116.552998 305 25402ft 434kts
01-Jun-20 11:56 33.228191 -116.644840 328 23685ft 433kts
01-Jun-20 11:57 33.338267 -116.701048 336 21821ft 426kts
01-Jun-20 11:58 33.448777 -116.748914 336 20156ft 416kts
01-Jun-20 11:59 33.552786 -116.802433 323 18505ft 400kts
01-Jun-20 12:00 33.645367 -116.873839 323 17450ft 391kts
01-Jun-20 12:01 33.722990 -116.958956 297 16452ft 374kts
01-Jun-20 12:02 33.775147 -117.065135 293 16129ft 366kts
01-Jun-20 12:03 33.824811 -117.170861 293 15770ft 364kts
01-Jun-20 12:04 33.873665 -117.276068 293 14926ft 361kts
01-Jun-20 12:05 33.922139 -117.380333 294 13517ft 346kts
01-Jun-20 12:06 33.966500 -117.478100 285 12858ft 336kts
01-Jun-20 12:07 33.989505 -117.585965 278 10888ft 312kts
01-Jun-20 12:08 34.006403 -117.680699 277 10081ft 273kts
01-Jun-20 12:09 33.998801 -117.769043 262 8830ft 271kts
01-Jun-20 12:10 33.989804 -117.858398 263 7595ft 261kts
01-Jun-20 12:11 33.982449 -117.941872 265 6508ft 245kts
01-Jun-20 12:12 33.975199 -118.014305 262 6009ft 214kts
01-Jun-20 12:13 33.968374 -118.084695 264 4948ft 209kts
01-Jun-20 12:13 33.961966 -118.142172 263 4026ft 204kts
01-Jun-20 12:14 33.955983 -118.204459 262 2988ft 160kts
01-Jun-20 12:16 33.949763 -118.264069 263 2073ft 150kts
01-Jun-20 12:16 33.945568 -118.304996 262 1423ft 147kts
01-Jun-20 12:17 33.940589 -118.353328 262 647ft 143kts
01-Jun-20 12:18 33.936347 -118.395142 262 139ft 60kts
01-Jun-20 12:19 33.935871 -118.405862 300 139ft 4kts
01-Jun-20 12:20 33.936951 -118.409026 354 139ft 14kts
01-Jun-20 12:21 33.938647 -118.409615 260 139ft 7kts
01-Jun-20 12:22 33.940079 -118.411099 80 139ft 11kts
01-Jun-20 12:23 33.940132 -118.410544 83 139ft 0kts
01-Jun-20 12:24 33.940132 -118.410544 83 139ft 0kts

Navigation Log

Ident Type
Flight plan parsing failed, navigation log unavailable